ID6864 / PK-LAT 7700 Squawk Report (16th of November, 2020)

Aircraft A320 Reg No. PK-LAT Age 4 years old
Model A320 Jet engines 2 First flight 13-01-16
Registered 25-02-16 Rollout 02-16 Delivered 25-02-16
Construction No. 6951 Line No. N/A Series 214(SL)
ADSHEX 8A051C Airline name Batik Air Owner N/A
Airfield based Jakarta-Soekarno-Hatta Int'l~Java~PK First tracked N/A

Flight history for PK-LAT

Route Flight No Date Playback
Soekarno Hatta Intl (CGK) - Hang Nadim (BTH) ID6864 2020-11-16 05:43:00
Ngurah Rai International (DPS) - Soekarno Hatta Intl (CGK) ID6513 2020-11-15 09:13:00
Soekarno Hatta Intl (CGK) - Ngurah Rai International (DPS) ID6061 2020-11-15 03:36:00
Ngurah Rai International (DPS) - Soekarno Hatta Intl (CGK) ID6505 2020-11-14 10:58:00
Soekarno Hatta Intl (CGK) - Ngurah Rai International (DPS) ID6061 2020-11-14 09:25:00
Radin Inten II (Branti) Airport (TKG) - Soekarno Hatta Intl (CGK) ID6713 2020-11-13 08:45:00
Soekarno Hatta Intl (CGK) - Radin Inten II (Branti) Airport (TKG) ID6712 2020-11-13 08:21:00
???? ID6867 2020-11-13 03:40:00
Soekarno Hatta Intl (CGK) - Kualanamu (KNO) ID6886 2020-11-13 00:37:00
Ngurah Rai International (DPS) - Soekarno Hatta Intl (CGK) ID6513 2020-11-12 09:00:00
Soekarno Hatta Intl (CGK) - Ngurah Rai International (DPS) ID6061 2020-11-12 03:54:00
Radin Inten II (Branti) Airport (TKG) - Soekarno Hatta Intl (CGK) ID6711 2020-11-11 00:42:00
Soekarno Hatta Intl (CGK) - Radin Inten II (Branti) Airport (TKG) ID6716 2020-11-10 09:02:00
Syamsudin Noor (BDJ) - Soekarno Hatta Intl (CGK) ID6213 2020-11-09 08:37:00
Soekarno Hatta Intl (CGK) - Syamsudin Noor (BDJ) ID6212 2020-11-09 08:10:00
Hang Nadim (BTH) - Soekarno Hatta Intl (CGK) ID6863 2020-11-09 02:13:00
Soekarno Hatta Intl (CGK) - Hang Nadim (BTH) ID6862 2020-11-08 12:06:00
Kualanamu (KNO) - Soekarno Hatta Intl (CGK) ID6891 2020-11-08 06:58:00
Soekarno Hatta Intl (CGK) - Kualanamu (KNO) ID6886 2020-11-08 03:18:00
Sultan Mahmud Badaruddin Ii (PLM) - Soekarno Hatta Intl (CGK) ID6871 2020-11-08 01:38:00
Time Lat Lon Altitude Heading Speed Vertical Rate
2020-11-16 05:42:14 GMT -6.143592 106.640968 250 68 123 -576
2020-11-16 05:42:10 GMT -6.144430 106.638840 300 68 123 -512
2020-11-16 05:42:00 GMT -6.146618 106.633446 400 68 123 -576
2020-11-16 05:41:49 GMT -6.148852 106.627762 500 68 123 -576
2020-11-16 05:41:43 GMT -6.150202 106.624443 575 67 123 -576
2020-11-16 05:41:38 GMT -6.151337 106.621521 625 68 122 -576
2020-11-16 05:41:30 GMT -6.152949 106.617622 700 67 124 -640
2020-11-16 05:41:26 GMT -6.153927 106.615166 750 68 126 -704
2020-11-16 05:41:21 GMT -6.154904 106.612701 800 68 125 -832
2020-11-16 05:41:11 GMT -6.157104 106.607094 925 67 122 -448
2020-11-16 05:41:05 GMT -6.158386 106.603928 975 68 122 -576
2020-11-16 05:41:00 GMT -6.159373 106.601387 1,025 68 122 -640
2020-11-16 05:40:56 GMT -6.160263 106.599174 1,075 67 123 -704
2020-11-16 05:40:49 GMT -6.161774 106.595497 1,150 68 123 -640
2020-11-16 05:40:46 GMT -6.162446 106.593712 1,175 68 124 -640
2020-11-16 05:40:36 GMT -6.164540 106.588409 1,275 67 124 -704
2020-11-16 05:40:28 GMT -6.166443 106.583817 1,375 68 124 -640
2020-11-16 05:40:25 GMT -6.166868 106.582680 1,400 68 124 -704
2020-11-16 05:40:15 GMT -6.169103 106.577042 1,525 68 124 -704
2020-11-16 05:40:04 GMT -6.171384 106.571266 1,625 68 123 -576
2020-11-16 05:39:53 GMT -6.173618 106.565582 1,725 68 123 -576
2020-11-16 05:39:43 GMT -6.175827 106.560120 1,850 68 123 -640
2020-11-16 05:39:32 GMT -6.178207 106.554253 1,950 67 124 -576
2020-11-16 05:39:21 GMT -6.180496 106.548576 2,075 68 127 -704
2020-11-16 05:39:11 GMT -6.182877 106.542664 2,200 67 128 -576
2020-11-16 05:38:59 GMT -6.185394 106.536331 2,300 68 129 -448
2020-11-16 05:38:48 GMT -6.187820 106.530235 2,425 68 127 -768
2020-11-16 05:38:38 GMT -6.190247 106.524277 2,525 68 129 -768
2020-11-16 05:38:27 GMT -6.192518 106.518326 2,650 68 127 -512
2020-11-16 05:38:16 GMT -6.194962 106.512123 2,775 68 129 -704
2020-11-16 05:38:08 GMT -6.196747 106.507607 2,875 68 129 -832
2020-11-16 05:38:05 GMT -6.197296 106.506264 2,925 68 129 -832
2020-11-16 05:37:54 GMT -6.199780 106.499901 3,050 68 128 -704
2020-11-16 05:37:46 GMT -6.201410 106.495735 3,125 68 127 -320
2020-11-16 05:37:43 GMT -6.202108 106.493980 3,150 68 130 -448
2020-11-16 05:37:36 GMT -6.203737 106.489960 3,225 67 132 -576
2020-11-16 05:37:32 GMT -6.204622 106.487823 3,250 67 134 -704
2020-11-16 05:37:26 GMT -6.206177 106.483963 3,325 68 139 -768
2020-11-16 05:37:21 GMT -6.207229 106.481293 3,375 67 140 -832
2020-11-16 05:37:15 GMT -6.208832 106.477394 3,475 68 140 -896
2020-11-16 05:37:11 GMT -6.209793 106.474930 3,525 68 140 -1024
2020-11-16 05:37:04 GMT -6.211395 106.470924 3,650 68 139 -832
2020-11-16 05:36:59 GMT -6.212494 106.468132 3,700 68 138 -768
2020-11-16 05:36:54 GMT -6.213821 106.464737 3,775 68 138 -832
2020-11-16 05:36:49 GMT -6.215050 106.461639 3,850 67 138 -896
2020-11-16 05:36:41 GMT -6.216819 106.457237 3,925 68 136 -384
2020-11-16 05:36:38 GMT -6.217610 106.455200 3,950 68 136 -512
2020-11-16 05:36:33 GMT -6.218811 106.452209 3,975 68 136 -448
2020-11-16 05:36:27 GMT -6.220184 106.448769 4,025 68 137 -512
2020-11-16 05:36:22 GMT -6.221334 106.445915 4,075 68 139 -512
2020-11-16 05:36:16 GMT -6.222885 106.442062 4,100 68 138 -320
2020-11-16 05:36:12 GMT -6.223848 106.439575 4,125 68 139 -192
2020-11-16 05:36:05 GMT -6.225494 106.435455 4,125 68 140 128
2020-11-16 05:36:01 GMT -6.226410 106.433220 4,125 68 142 64
2020-11-16 05:35:54 GMT -6.228038 106.428917 4,125 69 146 -64
2020-11-16 05:35:50 GMT -6.228973 106.426422 4,125 69 148 -64
2020-11-16 05:35:43 GMT -6.230667 106.421722 4,125 70 152 0
2020-11-16 05:35:40 GMT -6.231400 106.419716 4,125 70 155 -64
2020-11-16 05:35:32 GMT -6.233322 106.414131 4,125 72 162 -64
2020-11-16 05:35:29 GMT -6.233871 106.412361 4,125 73 166 0
2020-11-16 05:35:21 GMT -6.235672 106.405907 4,150 79 175 0
2020-11-16 05:35:18 GMT -6.236091 106.403915 4,150 82 179 128
2020-11-16 05:35:10 GMT -6.236464 106.396858 4,125 98 190 64
2020-11-16 05:34:57 GMT -6.232498 106.386200 4,125 121 197 64
2020-11-16 05:34:46 GMT -6.227234 106.377640 4,125 120 201 -64
2020-11-16 05:34:37 GMT -6.222498 106.369629 4,150 120 207 -128
2020-11-16 05:34:25 GMT -6.217026 106.360367 4,225 121 212 -896
2020-11-16 05:34:16 GMT -6.211945 106.352264 4,475 127 215 -768
2020-11-16 05:34:03 GMT -6.202853 106.343491 4,525 152 222 -896
2020-11-16 05:33:53 GMT -6.193085 106.339928 4,700 168 224 -1088
2020-11-16 05:33:42 GMT -6.181951 106.337898 4,925 170 223 -1280
2020-11-16 05:33:32 GMT -6.171021 106.336021 5,100 170 225 -768
2020-11-16 05:33:21 GMT -6.159932 106.334114 5,275 170 224 -1280
2020-11-16 05:33:10 GMT -6.148713 106.332169 5,475 169 224 -768
2020-11-16 05:32:59 GMT -6.137494 106.330132 5,600 170 226 -768
2020-11-16 05:32:48 GMT -6.126368 106.328194 5,800 170 228 -1088
2020-11-16 05:32:38 GMT -6.115009 106.326256 6,025 170 227 -1216
2020-11-16 05:32:30 GMT -6.106842 106.324799 6,175 169 228 -1088
2020-11-16 05:32:27 GMT -6.103592 106.324242 6,225 169 228 -1024
2020-11-16 05:32:19 GMT -6.095810 106.322845 6,325 169 229 -896
2020-11-16 05:32:16 GMT -6.092148 106.322189 6,375 169 231 -768
2020-11-16 05:32:08 GMT -6.084503 106.320793 6,450 169 234 -512
2020-11-16 05:32:04 GMT -6.080200 106.320007 6,500 169 237 -512
2020-11-16 05:31:57 GMT -6.072414 106.318581 6,550 169 241 -448
2020-11-16 05:31:54 GMT -6.068481 106.317909 6,575 170 244 -448
2020-11-16 05:31:47 GMT -6.061295 106.316650 6,625 170 248 -512
2020-11-16 05:31:43 GMT -6.056168 106.315819 6,675 169 251 -576
2020-11-16 05:31:37 GMT -6.049347 106.314606 6,725 167 253 -576
2020-11-16 05:31:31 GMT -6.042984 106.313210 6,775 165 256 -576
2020-11-16 05:31:26 GMT -6.037125 106.311623 6,825 162 259 -512
2020-11-16 05:31:20 GMT -6.030075 106.309387 6,875 162 263 -512
2020-11-16 05:31:16 GMT -6.024719 106.307716 6,900 162 265 -448
2020-11-16 05:31:10 GMT -6.017715 106.305481 6,950 162 269 -576
2020-11-16 05:31:05 GMT -6.011570 106.303520 7,000 162 272 -640
2020-11-16 05:30:58 GMT -6.003796 106.301056 7,075 162 277 -640
2020-11-16 05:30:54 GMT -5.999039 106.299568 7,100 162 280 -256
2020-11-16 05:30:48 GMT -5.990621 106.296890 7,150 162 285 -256
2020-11-16 05:30:44 GMT -5.985594 106.295280 7,175 162 286 -320
2020-11-16 05:30:36 GMT -5.976562 106.292397 7,250 162 287 -960
2020-11-16 05:30:33 GMT -5.972305 106.291046 7,300 162 288 -1152
2020-11-16 05:30:23 GMT -5.959076 106.286903 7,525 162 290 -1280
2020-11-16 05:30:15 GMT -5.948639 106.283600 7,700 162 291 -1408
2020-11-16 05:30:12 GMT -5.945435 106.282578 7,775 162 292 -1408
2020-11-16 05:30:03 GMT -5.933921 106.278900 7,975 162 293 -1408
2020-11-16 05:29:57 GMT -5.925821 106.276337 8,125 162 294 -1408
2020-11-16 05:29:51 GMT -5.917786 106.273781 8,275 162 295 -1408
2020-11-16 05:29:42 GMT -5.905989 106.270042 8,500 162 295 -1344
2020-11-16 05:29:38 GMT -5.900803 106.268379 8,600 162 295 -1408
2020-11-16 05:29:29 GMT -5.889091 106.264694 8,800 162 295 -1472
2020-11-16 05:29:18 GMT -5.873822 106.259857 9,075 162 297 -1408
2020-11-16 05:29:09 GMT -5.848404 106.251808 9,775 162 300 -512
2020-11-16 05:28:58 GMT -5.848404 106.251808 9,550 162 302 -1536
2020-11-16 05:28:47 GMT -5.833099 106.246964 9,750 162 301 -640
2020-11-16 05:28:36 GMT -5.819000 106.242493 9,850 162 299 -448
2020-11-16 05:28:25 GMT -5.804443 106.237839 9,925 162 299 -512
2020-11-16 05:28:15 GMT -5.790115 106.233276 10,025 162 299 -576
2020-11-16 05:28:03 GMT -5.775375 106.228622 10,100 162 298 -256
2020-11-16 05:27:53 GMT -5.761258 106.224152 10,125 162 298 0
2020-11-16 05:27:42 GMT -5.746490 106.219498 10,125 162 299 -64
2020-11-16 05:27:31 GMT -5.731930 106.214874 10,125 162 299 64
2020-11-16 05:27:20 GMT -5.717468 106.210327 10,125 162 301 -64
2020-11-16 05:27:09 GMT -5.703186 106.205811 10,125 162 301 -64
2020-11-16 05:26:58 GMT -5.688311 106.201141 10,125 162 300 0
2020-11-16 05:26:47 GMT -5.674206 106.196640 10,125 162 300 64
2020-11-16 05:26:36 GMT -5.659241 106.191895 10,125 162 300 -64
2020-11-16 05:26:25 GMT -5.645004 106.187378 10,125 162 299 0
2020-11-16 05:26:15 GMT -5.630633 106.182816 10,125 162 299 -64
2020-11-16 05:26:04 GMT -5.616074 106.178207 10,125 162 300 64
2020-11-16 05:25:53 GMT -5.601165 106.174049 10,125 169 303 0
2020-11-16 05:25:42 GMT -5.585770 106.171783 10,125 173 304 -64
2020-11-16 05:25:31 GMT -5.570572 106.170013 10,125 173 304 -64
2020-11-16 05:25:20 GMT -5.555172 106.168228 10,125 174 305 0
2020-11-16 05:25:09 GMT -5.539856 106.167328 10,125 182 308 0
2020-11-16 05:25:05 GMT -5.533851 106.167473 10,125 186 310 0
2020-11-16 05:24:58 GMT -5.523982 106.168373 10,125 188 312 128
2020-11-16 05:24:47 GMT -5.508526 106.170357 10,125 188 313 -64
2020-11-16 05:24:36 GMT -5.492569 106.172432 10,125 188 313 64
2020-11-16 05:24:28 GMT -5.480502 106.174004 10,100 188 313 0
2020-11-16 05:24:24 GMT -5.474543 106.174858 10,100 188 313 -64
2020-11-16 05:24:13 GMT -5.459134 106.176559 10,125 185 308 0
2020-11-16 05:24:02 GMT -5.443772 106.177322 10,125 182 303 -256
2020-11-16 05:23:51 GMT -5.428345 106.177742 10,125 182 303 0
2020-11-16 05:23:41 GMT -5.414383 106.178162 10,125 183 304 128
2020-11-16 05:23:31 GMT -5.399408 106.178696 10,100 182 307 0
2020-11-16 05:23:20 GMT -5.383999 106.178932 10,100 179 307 64
2020-11-16 05:23:09 GMT -5.368332 106.178627 10,125 178 306 64
2020-11-16 05:22:58 GMT -5.352763 106.178268 10,125 178 305 64
2020-11-16 05:22:47 GMT -5.336655 106.177834 10,100 178 306 0
2020-11-16 05:22:36 GMT -5.321136 106.177460 10,125 178 307 0
2020-11-16 05:22:25 GMT -5.305791 106.177177 10,125 179 305 0
2020-11-16 05:22:14 GMT -5.290522 106.176987 10,125 179 303 64
2020-11-16 05:22:04 GMT -5.275497 106.176994 10,125 182 305 0
2020-11-16 05:21:52 GMT -5.259567 106.177414 10,125 182 307 0
2020-11-16 05:21:41 GMT -5.243866 106.177696 10,125 179 306 0
2020-11-16 05:21:31 GMT -5.228668 106.177460 10,125 178 305 0
2020-11-16 05:21:19 GMT -5.212418 106.176765 10,125 175 302 0
2020-11-16 05:21:09 GMT -5.197697 106.175377 10,125 172 300 0
2020-11-16 05:20:58 GMT -5.182614 106.173203 10,125 170 301 0
2020-11-16 05:20:47 GMT -5.167191 106.170662 10,125 170 302 64
2020-11-16 05:20:35 GMT -5.151627 106.168106 10,125 170 303 0
2020-11-16 05:20:25 GMT -5.136946 106.165718 10,125 170 303 0
2020-11-16 05:20:13 GMT -5.119812 106.162933 10,100 170 305 -64
2020-11-16 05:20:03 GMT -5.106857 106.160797 10,125 170 307 0
2020-11-16 05:19:51 GMT -5.088730 106.157768 10,125 170 306 0
2020-11-16 05:19:42 GMT -5.076289 106.155777 10,125 170 305 0
2020-11-16 05:19:31 GMT -5.060806 106.153252 10,125 170 304 0
2020-11-16 05:19:19 GMT -5.044464 106.150604 10,125 170 302 0
2020-11-16 05:19:08 GMT -5.029037 106.148087 10,125 170 303 0
2020-11-16 05:18:58 GMT -5.015026 106.145828 10,125 170 302 0
2020-11-16 05:18:47 GMT -4.999924 106.143341 10,125 170 303 0
2020-11-16 05:18:36 GMT -4.984680 106.140823 10,125 170 302 0
2020-11-16 05:18:25 GMT -4.969025 106.138313 10,125 170 301 0
2020-11-16 05:18:14 GMT -4.953735 106.135796 10,125 170 302 0
2020-11-16 05:18:01 GMT -4.936818 106.133095 10,125 170 302 64
We lost coverage of the aircraft here for a total of 7 minutes
2020-11-16 05:11:02 GMT -4.623382 105.894852 14,175 39 346 -1152
2020-11-16 05:10:57 GMT -4.629684 105.889908 14,250 35 352 -960
2020-11-16 05:10:25 GMT -4.677150 105.864777 14,775 20 378 -1152
2020-11-16 05:09:56 GMT -4.726542 105.847923 15,700 17 390 -2304
2020-11-16 05:09:47 GMT -4.742523 105.844330 15,975 9 389 -4352
2020-11-16 05:09:41 GMT -4.752319 105.842659 16,725 8 390 -4352
2020-11-16 05:09:30 GMT -4.772442 105.839920 17,400 6 396 -3008
2020-11-16 05:09:19 GMT -4.792786 105.837975 17,925 4 404 -2944
2020-11-16 05:09:08 GMT -4.813248 105.836281 18,575 5 409 -3904
2020-11-16 05:08:56 GMT -4.836548 105.833908 19,450 4 409 -4736
2020-11-16 05:08:47 GMT -4.854721 105.833717 20,125 354 415 -3520
2020-11-16 05:08:40 GMT -4.866623 105.835213 20,500 349 416 -3584
2020-11-16 05:08:36 GMT -4.874857 105.836983 20,800 345 418 -3840
2020-11-16 05:08:31 GMT -4.884933 105.839821 21,175 341 419 -4096
2020-11-16 05:08:25 GMT -4.895645 105.843773 21,675 340 414 -6016
2020-11-16 05:08:20 GMT -4.904663 105.847176 22,175 340 411 -5888
2020-11-16 05:08:14 GMT -4.915311 105.851189 22,725 340 408 -5760
2020-11-16 05:08:10 GMT -4.922387 105.853889 23,125 340 406 -5824
2020-11-16 05:08:03 GMT -4.934830 105.858627 23,775 340 403 -5632
2020-11-16 05:07:59 GMT -4.941892 105.861275 24,100 340 403 -4864
2020-11-16 05:07:49 GMT -4.959045 105.867798 24,625 340 409 -2176
2020-11-16 05:07:41 GMT -4.973190 105.873146 24,800 340 420 -832
2020-11-16 05:07:30 GMT -4.993011 105.880646 24,925 340 425 -576
2020-11-16 05:07:19 GMT -5.012978 105.888222 24,950 340 429 192
2020-11-16 05:07:08 GMT -5.033647 105.896080 24,950 340 431 -64
2020-11-16 05:06:58 GMT -5.053711 105.903732 24,950 340 425 192
2020-11-16 05:06:47 GMT -5.073898 105.911461 24,875 339 419 704
2020-11-16 05:06:35 GMT -5.094406 105.919327 24,700 339 416 1024
2020-11-16 05:06:24 GMT -5.113998 105.926872 24,525 339 412 640
2020-11-16 05:06:13 GMT -5.133688 105.934341 24,375 340 407 832
2020-11-16 05:06:03 GMT -5.152076 105.941254 24,175 340 404 1408
2020-11-16 05:05:52 GMT -5.171631 105.948753 23,875 338 403 1600
2020-11-16 05:05:41 GMT -5.190079 105.956619 23,550 336 404 2048
2020-11-16 05:05:30 GMT -5.209579 105.965927 22,050 334 406 2624
2020-11-16 05:05:19 GMT -5.227909 105.974976 22,525 334 414 3328
2020-11-16 05:05:08 GMT -5.246484 105.984116 22,100 334 418 1792
2020-11-16 05:04:57 GMT -5.266434 105.993996 21,825 334 416 1344
2020-11-16 05:04:46 GMT -5.284331 106.002869 21,500 334 416 2304
2020-11-16 05:04:35 GMT -5.303603 106.012383 21,150 334 416 1600
2020-11-16 05:04:25 GMT -5.322006 106.021507 20,950 334 411 960
2020-11-16 05:04:12 GMT -5.342789 106.031799 20,800 334 404 640
2020-11-16 05:04:06 GMT -5.354345 106.037437 20,725 334 399 768
2020-11-16 05:04:02 GMT -5.359589 106.040039 20,675 334 398 832
2020-11-16 05:03:52 GMT -5.377389 106.048660 20,500 335 392 1280
2020-11-16 05:03:41 GMT -5.394799 106.056992 20,175 335 391 2048
2020-11-16 05:03:30 GMT -5.412323 106.066017 19,850 330 390 1408
2020-11-16 05:03:23 GMT -5.423035 106.072441 19,675 328 388 2176
2020-11-16 05:03:19 GMT -5.429993 106.076813 19,500 328 389 2304
2020-11-16 05:03:08 GMT -5.446658 106.087868 19,025 326 392 3136
2020-11-16 05:02:57 GMT -5.462585 106.098839 18,425 326 399 3264
2020-11-16 05:02:46 GMT -5.479202 106.110237 17,975 325 400 1984
2020-11-16 05:02:35 GMT -5.495865 106.122108 17,650 325 397 1728
2020-11-16 05:02:24 GMT -5.512802 106.134262 17,275 325 396 2240
2020-11-16 05:02:13 GMT -5.528544 106.145592 16,850 325 396 2304
2020-11-16 05:02:03 GMT -5.544800 106.156837 16,525 326 393 1600
2020-11-16 05:01:51 GMT -5.562248 106.168610 16,225 326 389 1600
2020-11-16 05:01:41 GMT -5.577850 106.179138 15,900 328 385 2176
2020-11-16 05:01:29 GMT -5.594927 106.189728 15,500 331 383 1984
2020-11-16 05:01:19 GMT -5.611779 106.199295 15,175 331 379 1664
2020-11-16 05:01:08 GMT -5.628525 106.208740 14,875 331 374 1600
2020-11-16 05:00:57 GMT -5.644552 106.217857 14,525 331 370 2368
2020-11-16 05:00:45 GMT -5.661987 106.227783 14,025 331 369 2624
2020-11-16 05:00:35 GMT -5.678101 106.237045 13,600 331 369 2112
2020-11-16 05:00:24 GMT -5.694077 106.246262 13,225 330 364 2176
2020-11-16 05:00:13 GMT -5.709958 106.255455 12,775 330 363 2624
2020-11-16 05:00:02 GMT -5.725800 106.264931 12,275 326 364 2880
2020-11-16 04:59:51 GMT -5.740173 106.276756 11,800 313 366 2304
2020-11-16 04:59:40 GMT -5.751709 106.291512 11,450 303 362 1792
2020-11-16 04:59:29 GMT -5.761724 106.306976 11,200 303 352 960
2020-11-16 04:59:18 GMT -5.771081 106.321518 11,000 303 339 1152
2020-11-16 04:59:07 GMT -5.780411 106.335922 10,800 304 326 960
2020-11-16 04:58:56 GMT -5.789562 106.350021 10,575 303 314 1536
2020-11-16 04:58:50 GMT -5.794404 106.357597 10,350 303 310 2432
2020-11-16 04:58:45 GMT -5.797943 106.363113 10,150 303 309 2880
2020-11-16 04:58:40 GMT -5.802271 106.369820 9,875 303 308 2816
2020-11-16 04:58:34 GMT -5.806458 106.376236 9,625 303 307 2880
2020-11-16 04:58:29 GMT -5.810650 106.382744 9,350 303 306 2944
2020-11-16 04:58:23 GMT -5.815212 106.389801 9,075 303 305 2816
2020-11-16 04:58:18 GMT -5.818750 106.395294 8,875 303 304 2880
2020-11-16 04:58:13 GMT -5.822983 106.401894 8,625 303 301 2752
2020-11-16 04:58:08 GMT -5.826645 106.407570 8,425 303 300 2368
2020-11-16 04:58:02 GMT -5.831366 106.414856 8,250 303 298 1280
2020-11-16 04:57:57 GMT -5.834671 106.420013 8,150 303 299 768
2020-11-16 04:57:51 GMT -5.839737 106.427910 8,100 303 299 64
2020-11-16 04:57:47 GMT -5.842352 106.431946 8,100 303 299 128
2020-11-16 04:57:40 GMT -5.847656 106.440201 8,075 303 299 384
2020-11-16 04:57:36 GMT -5.850359 106.444351 8,050 303 298 576
2020-11-16 04:57:29 GMT -5.856262 106.453468 7,950 303 298 1024
2020-11-16 04:57:26 GMT -5.858459 106.456902 7,900 303 297 960
2020-11-16 04:57:18 GMT -5.864090 106.465714 7,775 303 297 960
2020-11-16 04:57:13 GMT -5.868096 106.471916 7,675 303 297 960
2020-11-16 04:57:07 GMT -5.872604 106.478935 7,575 303 296 1024
2020-11-16 04:57:04 GMT -5.874344 106.481590 7,550 303 295 1088
2020-11-16 04:56:54 GMT -5.882248 106.493889 7,350 303 296 960
2020-11-16 04:56:43 GMT -5.890162 106.506149 7,175 303 298 896
2020-11-16 04:56:33 GMT -5.898029 106.518417 7,025 303 298 1088
2020-11-16 04:56:22 GMT -5.905701 106.530327 6,850 303 297 1024
2020-11-16 04:56:11 GMT -5.913940 106.543129 6,650 303 297 1024
2020-11-16 04:56:01 GMT -5.921631 106.555046 6,500 303 295 960
2020-11-16 04:55:50 GMT -5.929591 106.567383 6,325 303 293 960
2020-11-16 04:55:40 GMT -5.937412 106.579552 6,125 303 292 1088
2020-11-16 04:55:28 GMT -5.945938 106.592850 5,875 303 290 1472
2020-11-16 04:55:18 GMT -5.953445 106.604530 5,625 303 291 1472
2020-11-16 04:55:07 GMT -5.961573 106.617393 5,325 303 290 1536
2020-11-16 04:54:56 GMT -5.969440 106.629845 5,100 303 290 1536
2020-11-16 04:54:45 GMT -5.977354 106.641777 4,825 306 291 1472
2020-11-16 04:54:34 GMT -5.987457 106.652618 4,450 324 279 2368
2020-11-16 04:54:26 GMT -5.996246 106.658302 4,175 334 275 1280
2020-11-16 04:54:23 GMT -5.999771 106.660118 4,125 336 276 960
2020-11-16 04:54:15 GMT -6.009009 106.664177 4,025 337 276 768
2020-11-16 04:54:12 GMT -6.012547 106.665741 3,975 337 276 1152
2020-11-16 04:54:04 GMT -6.021951 106.669807 3,800 337 276 1600
2020-11-16 04:54:01 GMT -6.025256 106.671234 3,700 337 276 1856
2020-11-16 04:53:54 GMT -6.033496 106.674828 3,450 337 276 2304
2020-11-16 04:53:50 GMT -6.038132 106.676918 3,300 336 275 2624
2020-11-16 04:53:43 GMT -6.045972 106.680420 3,000 336 271 2496
2020-11-16 04:53:40 GMT -6.050537 106.682503 2,850 336 266 2176
2020-11-16 04:53:26 GMT -6.065048 106.688881 2,475 341 246 1664
2020-11-16 04:53:11 GMT -6.080978 106.691261 2,175 1 225 1408
2020-11-16 04:53:08 GMT -6.084000 106.690651 2,050 16 209 960
2020-11-16 04:53:00 GMT -6.091360 106.687660 1,975 32 184 1088
2020-11-16 04:52:50 GMT -6.098190 106.683113 1,750 37 174 1472
2020-11-16 04:52:40 GMT -6.104187 106.677994 1,550 52 159 832
2020-11-16 04:52:30 GMT -6.107941 106.671570 1,275 68 149 2624
2020-11-16 04:52:17 GMT -6.111282 106.663002 725 68 150 2816

Making use of Plane Finder data

You are free to use the raw flight data, aircraft information and images provided in this report for your own purposes provided the data is correctly attributed to Plane Finder. We ask that you please credit Plane Finder and link to planefinder.net in close proximity to the content.

Optionally one of the following logos (no smaller then 150x24px) can be used and must link to planefinder.net

Embedding the Plane Finder map

You are welcome to embed the Plane Finder playback map on your website to offer visitors a more interactive experience. We suggest using the following HTML code:

<iframe src="//planefinder.net/data/report/ID6864-PK-LAT-7700-squawk-2020-11-16/map" width="800" height="600" seamless="seamless"></iframe>

Where our data comes from

Plane Finder has a global network of data feeds and antenna radars that receive data broadcast directly from aircraft. The primary technologies used are ADS-B and MLAT. We also show feeds from the FAA and a FLARM glider feed.

Click here to find out more about the Plane Finder network.

How we collect our data